sensor_id;sensor_type;location;lat;lon;timestamp;temperature;humidity
16976;DHT22;8604;48.148;-1.786;2022-09-17T00:01:37;11.90;99.90
16976;DHT22;8604;48.148;-1.786;2022-09-17T00:04:09;11.80;99.90
16976;DHT22;8604;48.148;-1.786;2022-09-17T00:06:37;11.80;99.90
16976;DHT22;8604;48.148;-1.786;2022-09-17T00:09:06;11.80;99.90
16976;DHT22;8604;48.148;-1.786;2022-09-17T00:11:37;11.70;99.90
16976;DHT22;8604;48.148;-1.786;2022-09-17T00:14:07;11.60;99.90
16976;DHT22;8604;48.148;-1.786;2022-09-17T00:16:38;11.60;99.90
16976;DHT22;8604;48.148;-1.786;2022-09-17T00:19:14;11.60;99.90
16976;DHT22;8604;48.148;-1.786;2022-09-17T00:21:43;11.60;99.90
16976;DHT22;8604;48.148;-1.786;2022-09-17T00:24:13;11.50;99.90
16976;DHT22;8604;48.148;-1.786;2022-09-17T00:26:42;11.50;99.90
16976;DHT22;8604;48.148;-1.786;2022-09-17T00:29:11;11.50;99.90
16976;DHT22;8604;48.148;-1.786;2022-09-17T00:31:39;11.40;99.90
16976;DHT22;8604;48.148;-1.786;2022-09-17T00:34:09;11.40;99.90
16976;DHT22;8604;48.148;-1.786;2022-09-17T00:36:38;11.40;99.90
16976;DHT22;8604;48.148;-1.786;2022-09-17T00:39:08;11.30;99.90
16976;DHT22;8604;48.148;-1.786;2022-09-17T00:41:38;11.30;99.90
16976;DHT22;8604;48.148;-1.786;2022-09-17T00:44:42;11.20;99.90
16976;DHT22;8604;48.148;-1.786;2022-09-17T00:47:16;11.20;99.90
16976;DHT22;8604;48.148;-1.786;2022-09-17T00:49:49;11.20;99.90
16976;DHT22;8604;48.148;-1.786;2022-09-17T00:52:21;11.10;99.90
16976;DHT22;8604;48.148;-1.786;2022-09-17T00:54:54;11.10;99.90
16976;DHT22;8604;48.148;-1.786;2022-09-17T00:57:24;11.10;99.90
16976;DHT22;8604;48.148;-1.786;2022-09-17T00:59:53;11.10;99.90
16976;DHT22;8604;48.148;-1.786;2022-09-17T01:02:21;11.10;99.90
16976;DHT22;8604;48.148;-1.786;2022-09-17T01:04:51;11.00;99.90
16976;DHT22;8604;48.148;-1.786;2022-09-17T01:07:30;11.00;99.90
16976;DHT22;8604;48.148;-1.786;2022-09-17T01:10:09;11.00;99.90
16976;DHT22;8604;48.148;-1.786;2022-09-17T01:12:49;11.00;99.90
16976;DHT22;8604;48.148;-1.786;2022-09-17T01:15:26;10.90;99.90
16976;DHT22;8604;48.148;-1.786;2022-09-17T01:18:10;10.90;99.90
16976;DHT22;8604;48.148;-1.786;2022-09-17T01:24:03;10.90;99.90
16976;DHT22;8604;48.148;-1.786;2022-09-17T01:29:53;10.80;99.90
16976;DHT22;8604;48.148;-1.786;2022-09-17T01:32:27;10.80;99.90
16976;DHT22;8604;48.148;-1.786;2022-09-17T01:35:02;10.80;99.90
16976;DHT22;8604;48.148;-1.786;2022-09-17T01:37:36;10.80;99.90
16976;DHT22;8604;48.148;-1.786;2022-09-17T01:40:16;10.70;99.90
16976;DHT22;8604;48.148;-1.786;2022-09-17T01:42:56;10.70;99.90
16976;DHT22;8604;48.148;-1.786;2022-09-17T01:45:29;10.70;99.90
16976;DHT22;8604;48.148;-1.786;2022-09-17T01:48:03;10.70;99.90
16976;DHT22;8604;48.148;-1.786;2022-09-17T01:50:37;10.70;99.90
16976;DHT22;8604;48.148;-1.786;2022-09-17T01:53:07;10.60;99.90
16976;DHT22;8604;48.148;-1.786;2022-09-17T01:55:38;10.60;99.90
16976;DHT22;8604;48.148;-1.786;2022-09-17T01:58:12;10.60;99.90
16976;DHT22;8604;48.148;-1.786;2022-09-17T02:00:43;10.60;99.90
16976;DHT22;8604;48.148;-1.786;2022-09-17T02:03:20;10.50;99.90
16976;DHT22;8604;48.148;-1.786;2022-09-17T02:05:54;10.50;99.90
16976;DHT22;8604;48.148;-1.786;2022-09-17T02:08:25;10.50;99.90
16976;DHT22;8604;48.148;-1.786;2022-09-17T02:10:58;10.40;99.90
16976;DHT22;8604;48.148;-1.786;2022-09-17T02:13:33;10.40;99.90
16976;DHT22;8604;48.148;-1.786;2022-09-17T02:16:06;10.40;99.90
16976;DHT22;8604;48.148;-1.786;2022-09-17T02:18:43;10.40;99.90
16976;DHT22;8604;48.148;-1.786;2022-09-17T02:21:16;10.40;99.90
16976;DHT22;8604;48.148;-1.786;2022-09-17T02:23:52;10.30;99.90
16976;DHT22;8604;48.148;-1.786;2022-09-17T02:26:25;10.30;99.90
16976;DHT22;8604;48.148;-1.786;2022-09-17T02:28:58;10.30;99.90
16976;DHT22;8604;48.148;-1.786;2022-09-17T02:31:28;10.20;99.90
16976;DHT22;8604;48.148;-1.786;2022-09-17T02:34:00;10.20;99.90
16976;DHT22;8604;48.148;-1.786;2022-09-17T02:36:30;10.20;99.90
16976;DHT22;8604;48.148;-1.786;2022-09-17T02:39:02;10.20;99.90
16976;DHT22;8604;48.148;-1.786;2022-09-17T02:41:41;10.10;99.90
16976;DHT22;8604;48.148;-1.786;2022-09-17T02:44:22;10.10;99.90
16976;DHT22;8604;48.148;-1.786;2022-09-17T02:47:12;10.10;99.90
16976;DHT22;8604;48.148;-1.786;2022-09-17T02:49:58;10.00;99.90
16976;DHT22;8604;48.148;-1.786;2022-09-17T02:52:33;10.00;99.90
16976;DHT22;8604;48.148;-1.786;2022-09-17T02:55:11;10.00;99.90
16976;DHT22;8604;48.148;-1.786;2022-09-17T02:57:46;10.00;99.90
16976;DHT22;8604;48.148;-1.786;2022-09-17T03:00:20;10.00;99.90
16976;DHT22;8604;48.148;-1.786;2022-09-17T03:02:54;10.00;99.90
16976;DHT22;8604;48.148;-1.786;2022-09-17T03:05:26;10.00;99.90
16976;DHT22;8604;48.148;-1.786;2022-09-17T03:07:55;9.90;99.90
16976;DHT22;8604;48.148;-1.786;2022-09-17T03:10:25;9.90;99.90
16976;DHT22;8604;48.148;-1.786;2022-09-17T03:12:54;9.90;99.90
16976;DHT22;8604;48.148;-1.786;2022-09-17T03:15:22;9.90;99.90
16976;DHT22;8604;48.148;-1.786;2022-09-17T03:17:50;9.90;99.90
16976;DHT22;8604;48.148;-1.786;2022-09-17T03:20:19;9.80;99.90
16976;DHT22;8604;48.148;-1.786;2022-09-17T03:25:33;9.80;99.90
16976;DHT22;8604;48.148;-1.786;2022-09-17T03:28:02;9.70;99.90
16976;DHT22;8604;48.148;-1.786;2022-09-17T03:30:30;9.70;99.90
16976;DHT22;8604;48.148;-1.786;2022-09-17T03:32:58;9.70;99.90
16976;DHT22;8604;48.148;-1.786;2022-09-17T03:35:27;9.60;99.90
16976;DHT22;8604;48.148;-1.786;2022-09-17T03:37:56;9.60;99.90
16976;DHT22;8604;48.148;-1.786;2022-09-17T03:40:25;9.60;99.90
16976;DHT22;8604;48.148;-1.786;2022-09-17T03:42:53;9.50;99.90
16976;DHT22;8604;48.148;-1.786;2022-09-17T03:45:22;9.40;99.90
16976;DHT22;8604;48.148;-1.786;2022-09-17T03:47:50;9.40;99.90
16976;DHT22;8604;48.148;-1.786;2022-09-17T03:50:18;9.40;99.90
16976;DHT22;8604;48.148;-1.786;2022-09-17T03:52:46;9.40;99.90
16976;DHT22;8604;48.148;-1.786;2022-09-17T03:55:16;9.40;99.90
16976;DHT22;8604;48.148;-1.786;2022-09-17T03:57:44;9.40;99.90
16976;DHT22;8604;48.148;-1.786;2022-09-17T04:00:13;9.40;99.90
16976;DHT22;8604;48.148;-1.786;2022-09-17T04:02:43;9.40;99.90
16976;DHT22;8604;48.148;-1.786;2022-09-17T04:05:11;9.40;99.90
16976;DHT22;8604;48.148;-1.786;2022-09-17T04:07:40;9.40;99.90
16976;DHT22;8604;48.148;-1.786;2022-09-17T04:10:08;9.40;99.90
16976;DHT22;8604;48.148;-1.786;2022-09-17T04:12:38;9.40;99.90
16976;DHT22;8604;48.148;-1.786;2022-09-17T04:15:07;9.40;99.90
16976;DHT22;8604;48.148;-1.786;2022-09-17T04:17:35;9.40;99.90
16976;DHT22;8604;48.148;-1.786;2022-09-17T04:20:05;9.40;99.90
16976;DHT22;8604;48.148;-1.786;2022-09-17T04:22:54;9.40;99.90
16976;DHT22;8604;48.148;-1.786;2022-09-17T04:25:22;9.30;99.90
16976;DHT22;8604;48.148;-1.786;2022-09-17T04:27:52;9.30;99.90
16976;DHT22;8604;48.148;-1.786;2022-09-17T04:30:20;9.40;99.90
16976;DHT22;8604;48.148;-1.786;2022-09-17T04:32:49;9.30;99.90
16976;DHT22;8604;48.148;-1.786;2022-09-17T04:35:17;9.30;99.90
16976;DHT22;8604;48.148;-1.786;2022-09-17T04:37:51;9.30;99.90
16976;DHT22;8604;48.148;-1.786;2022-09-17T04:40:20;9.30;99.90
16976;DHT22;8604;48.148;-1.786;2022-09-17T04:42:53;9.30;99.90
16976;DHT22;8604;48.148;-1.786;2022-09-17T04:45:22;9.40;99.90
16976;DHT22;8604;48.148;-1.786;2022-09-17T04:47:50;9.30;99.90
16976;DHT22;8604;48.148;-1.786;2022-09-17T04:50:19;9.30;99.90
16976;DHT22;8604;48.148;-1.786;2022-09-17T04:52:48;9.30;99.90
16976;DHT22;8604;48.148;-1.786;2022-09-17T04:55:16;9.30;99.90
16976;DHT22;8604;48.148;-1.786;2022-09-17T04:57:45;9.30;99.90
16976;DHT22;8604;48.148;-1.786;2022-09-17T05:00:16;9.20;99.90
16976;DHT22;8604;48.148;-1.786;2022-09-17T05:02:46;9.30;99.90
16976;DHT22;8604;48.148;-1.786;2022-09-17T05:05:16;9.20;99.90
16976;DHT22;8604;48.148;-1.786;2022-09-17T05:07:45;9.20;99.90
16976;DHT22;8604;48.148;-1.786;2022-09-17T05:10:15;9.20;99.90
16976;DHT22;8604;48.148;-1.786;2022-09-17T05:12:48;9.20;99.90
16976;DHT22;8604;48.148;-1.786;2022-09-17T05:15:18;9.20;99.90
16976;DHT22;8604;48.148;-1.786;2022-09-17T05:17:47;9.20;99.90
16976;DHT22;8604;48.148;-1.786;2022-09-17T05:20:16;9.20;99.90
16976;DHT22;8604;48.148;-1.786;2022-09-17T05:22:46;9.20;99.90
16976;DHT22;8604;48.148;-1.786;2022-09-17T05:25:15;9.20;99.90
16976;DHT22;8604;48.148;-1.786;2022-09-17T05:27:44;9.10;99.90
16976;DHT22;8604;48.148;-1.786;2022-09-17T05:30:12;9.10;99.90
16976;DHT22;8604;48.148;-1.786;2022-09-17T05:32:42;9.10;99.90
16976;DHT22;8604;48.148;-1.786;2022-09-17T05:35:10;9.10;99.90
16976;DHT22;8604;48.148;-1.786;2022-09-17T05:37:39;9.10;99.90
16976;DHT22;8604;48.148;-1.786;2022-09-17T05:40:22;9.10;99.90
16976;DHT22;8604;48.148;-1.786;2022-09-17T05:42:51;9.10;99.90
16976;DHT22;8604;48.148;-1.786;2022-09-17T05:45:19;9.10;99.90
16976;DHT22;8604;48.148;-1.786;2022-09-17T05:47:53;9.10;99.90
16976;DHT22;8604;48.148;-1.786;2022-09-17T05:50:28;9.10;99.90
16976;DHT22;8604;48.148;-1.786;2022-09-17T05:53:06;9.10;99.90
16976;DHT22;8604;48.148;-1.786;2022-09-17T05:55:44;9.10;99.90
16976;DHT22;8604;48.148;-1.786;2022-09-17T06:15:16;9.10;99.90
16976;DHT22;8604;48.148;-1.786;2022-09-17T06:17:52;9.20;99.90
16976;DHT22;8604;48.148;-1.786;2022-09-17T06:20:34;9.20;99.90
16976;DHT22;8604;48.148;-1.786;2022-09-17T06:23:05;9.20;99.90
16976;DHT22;8604;48.148;-1.786;2022-09-17T06:25:58;9.20;99.90
16976;DHT22;8604;48.148;-1.786;2022-09-17T06:28:33;9.20;99.90
16976;DHT22;8604;48.148;-1.786;2022-09-17T06:31:15;9.20;99.90
16976;DHT22;8604;48.148;-1.786;2022-09-17T06:33:49;9.30;99.90
16976;DHT22;8604;48.148;-1.786;2022-09-17T06:36:22;9.30;99.90
16976;DHT22;8604;48.148;-1.786;2022-09-17T06:51:17;9.30;99.90
16976;DHT22;8604;48.148;-1.786;2022-09-17T06:53:53;9.40;99.90
16976;DHT22;8604;48.148;-1.786;2022-09-17T06:56:34;9.40;99.90
16976;DHT22;8604;48.148;-1.786;2022-09-17T06:59:57;9.50;99.90
16976;DHT22;8604;48.148;-1.786;2022-09-17T07:03:01;9.60;99.90
16976;DHT22;8604;48.148;-1.786;2022-09-17T07:06:03;9.60;99.90
16976;DHT22;8604;48.148;-1.786;2022-09-17T07:08:55;9.60;99.90
16976;DHT22;8604;48.148;-1.786;2022-09-17T07:11:41;9.70;99.90
16976;DHT22;8604;48.148;-1.786;2022-09-17T07:14:19;9.80;99.90
16976;DHT22;8604;48.148;-1.786;2022-09-17T07:22:57;10.10;99.90
16976;DHT22;8604;48.148;-1.786;2022-09-17T07:25:41;10.30;99.90
16976;DHT22;8604;48.148;-1.786;2022-09-17T07:28:28;10.50;99.90
16976;DHT22;8604;48.148;-1.786;2022-09-17T07:31:20;10.70;99.90
16976;DHT22;8604;48.148;-1.786;2022-09-17T07:34:08;10.90;99.90
16976;DHT22;8604;48.148;-1.786;2022-09-17T07:37:02;11.30;99.90
16976;DHT22;8604;48.148;-1.786;2022-09-17T07:39:45;11.70;99.90
16976;DHT22;8604;48.148;-1.786;2022-09-17T07:42:16;12.20;99.90
16976;DHT22;8604;48.148;-1.786;2022-09-17T07:44:45;12.70;99.90
16976;DHT22;8604;48.148;-1.786;2022-09-17T07:47:16;13.20;99.90
16976;DHT22;8604;48.148;-1.786;2022-09-17T07:53:03;14.60;99.90
16976;DHT22;8604;48.148;-1.786;2022-09-17T07:56:11;15.60;99.90
16976;DHT22;8604;48.148;-1.786;2022-09-17T08:05:27;18.30;99.90
16976;DHT22;8604;48.148;-1.786;2022-09-17T08:07:57;19.00;99.90
16976;DHT22;8604;48.148;-1.786;2022-09-17T08:10:28;19.50;99.90
16976;DHT22;8604;48.148;-1.786;2022-09-17T08:13:02;20.00;99.90
16976;DHT22;8604;48.148;-1.786;2022-09-17T08:15:32;20.60;99.90
16976;DHT22;8604;48.148;-1.786;2022-09-17T08:18:18;21.10;99.90
16976;DHT22;8604;48.148;-1.786;2022-09-17T08:20:54;21.60;99.90
16976;DHT22;8604;48.148;-1.786;2022-09-17T08:23:25;22.20;99.90
16976;DHT22;8604;48.148;-1.786;2022-09-17T08:26:03;22.60;99.90
16976;DHT22;8604;48.148;-1.786;2022-09-17T08:28:48;23.30;99.90
16976;DHT22;8604;48.148;-1.786;2022-09-17T08:31:59;23.70;99.90
16976;DHT22;8604;48.148;-1.786;2022-09-17T08:34:58;24.00;99.90
16976;DHT22;8604;48.148;-1.786;2022-09-17T13:01:27;22.90;96.90
16976;DHT22;8604;48.148;-1.786;2022-09-17T13:04:30;22.90;98.50
16976;DHT22;8604;48.148;-1.786;2022-09-17T13:20:10;22.10;97.60
16976;DHT22;8604;48.148;-1.786;2022-09-17T13:23:15;21.90;98.40
16976;DHT22;8604;48.148;-1.786;2022-09-17T13:26:54;21.70;98.90
16976;DHT22;8604;48.148;-1.786;2022-09-17T13:30:16;21.50;99.20
16976;DHT22;8604;48.148;-1.786;2022-09-17T15:26:04;18.60;99.90
16976;DHT22;8604;48.148;-1.786;2022-09-17T15:54:04;18.20;99.90
16976;DHT22;8604;48.148;-1.786;2022-09-17T15:56:47;18.20;99.90
16976;DHT22;8604;48.148;-1.786;2022-09-17T15:59:26;18.20;99.90
16976;DHT22;8604;48.148;-1.786;2022-09-17T16:02:01;18.20;99.90
16976;DHT22;8604;48.148;-1.786;2022-09-17T16:09:43;18.00;99.90
16976;DHT22;8604;48.148;-1.786;2022-09-17T16:12:16;18.00;99.90
16976;DHT22;8604;48.148;-1.786;2022-09-17T16:14:51;18.00;99.90
16976;DHT22;8604;48.148;-1.786;2022-09-17T16:17:41;17.90;99.90
16976;DHT22;8604;48.148;-1.786;2022-09-17T16:20:15;17.90;99.90
16976;DHT22;8604;48.148;-1.786;2022-09-17T16:22:49;17.90;99.90
16976;DHT22;8604;48.148;-1.786;2022-09-17T16:32:07;17.70;99.90
16976;DHT22;8604;48.148;-1.786;2022-09-17T16:34:37;17.60;99.90
16976;DHT22;8604;48.148;-1.786;2022-09-17T16:37:07;17.50;99.90
16976;DHT22;8604;48.148;-1.786;2022-09-17T16:39:36;17.50;99.90
16976;DHT22;8604;48.148;-1.786;2022-09-17T16:42:32;17.50;99.90
16976;DHT22;8604;48.148;-1.786;2022-09-17T16:45:02;17.40;99.90
16976;DHT22;8604;48.148;-1.786;2022-09-17T16:51:05;17.20;99.90
16976;DHT22;8604;48.148;-1.786;2022-09-17T16:53:40;17.30;99.90
16976;DHT22;8604;48.148;-1.786;2022-09-17T16:56:13;17.20;99.90
16976;DHT22;8604;48.148;-1.786;2022-09-17T16:58:56;17.20;99.90
16976;DHT22;8604;48.148;-1.786;2022-09-17T17:01:32;17.20;99.90
16976;DHT22;8604;48.148;-1.786;2022-09-17T17:04:08;17.10;99.90
16976;DHT22;8604;48.148;-1.786;2022-09-17T17:06:43;17.00;99.90
16976;DHT22;8604;48.148;-1.786;2022-09-17T17:09:16;16.90;99.90
16976;DHT22;8604;48.148;-1.786;2022-09-17T17:11:46;16.90;99.90
16976;DHT22;8604;48.148;-1.786;2022-09-17T17:14:19;16.90;99.90
16976;DHT22;8604;48.148;-1.786;2022-09-17T17:16:48;16.80;99.90
16976;DHT22;8604;48.148;-1.786;2022-09-17T17:19:17;16.80;99.90
16976;DHT22;8604;48.148;-1.786;2022-09-17T17:21:50;16.80;99.90
16976;DHT22;8604;48.148;-1.786;2022-09-17T17:24:19;16.70;99.90
16976;DHT22;8604;48.148;-1.786;2022-09-17T17:26:52;16.70;99.90
16976;DHT22;8604;48.148;-1.786;2022-09-17T17:51:17;16.30;99.90
16976;DHT22;8604;48.148;-1.786;2022-09-17T17:53:50;16.30;99.90
16976;DHT22;8604;48.148;-1.786;2022-09-17T17:56:20;16.20;99.90
16976;DHT22;8604;48.148;-1.786;2022-09-17T17:58:53;16.10;99.90
16976;DHT22;8604;48.148;-1.786;2022-09-17T18:01:24;16.10;99.90
16976;DHT22;8604;48.148;-1.786;2022-09-17T18:03:58;16.00;99.90
16976;DHT22;8604;48.148;-1.786;2022-09-17T18:15:51;15.70;99.90
16976;DHT22;8604;48.148;-1.786;2022-09-17T18:18:23;15.60;99.90
16976;DHT22;8604;48.148;-1.786;2022-09-17T18:20:59;15.60;99.90
16976;DHT22;8604;48.148;-1.786;2022-09-17T18:23:32;15.50;99.90
16976;DHT22;8604;48.148;-1.786;2022-09-17T18:26:02;15.50;99.90
16976;DHT22;8604;48.148;-1.786;2022-09-17T18:28:33;15.40;99.90
16976;DHT22;8604;48.148;-1.786;2022-09-17T18:31:34;15.40;99.90
16976;DHT22;8604;48.148;-1.786;2022-09-17T18:34:07;15.30;99.90
16976;DHT22;8604;48.148;-1.786;2022-09-17T18:36:37;15.20;99.90
16976;DHT22;8604;48.148;-1.786;2022-09-17T18:39:09;15.20;99.90
16976;DHT22;8604;48.148;-1.786;2022-09-17T18:45:19;15.10;99.90
16976;DHT22;8604;48.148;-1.786;2022-09-17T18:47:50;15.00;99.90
16976;DHT22;8604;48.148;-1.786;2022-09-17T18:50:19;14.90;99.90
16976;DHT22;8604;48.148;-1.786;2022-09-17T18:52:49;14.90;99.90
16976;DHT22;8604;48.148;-1.786;2022-09-17T18:55:18;14.80;99.90
16976;DHT22;8604;48.148;-1.786;2022-09-17T18:57:48;14.70;99.90
16976;DHT22;8604;48.148;-1.786;2022-09-17T19:00:18;14.70;99.90
16976;DHT22;8604;48.148;-1.786;2022-09-17T19:02:49;14.70;99.90
16976;DHT22;8604;48.148;-1.786;2022-09-17T19:05:18;14.60;99.90
16976;DHT22;8604;48.148;-1.786;2022-09-17T19:07:48;14.60;99.90
16976;DHT22;8604;48.148;-1.786;2022-09-17T19:10:20;14.50;99.90
16976;DHT22;8604;48.148;-1.786;2022-09-17T19:12:48;14.50;99.90
16976;DHT22;8604;48.148;-1.786;2022-09-17T19:15:17;14.40;99.90
16976;DHT22;8604;48.148;-1.786;2022-09-17T19:17:52;14.40;99.90
16976;DHT22;8604;48.148;-1.786;2022-09-17T19:20:28;14.40;99.90
16976;DHT22;8604;48.148;-1.786;2022-09-17T19:23:02;14.30;99.90
16976;DHT22;8604;48.148;-1.786;2022-09-17T19:25:31;14.30;99.90
16976;DHT22;8604;48.148;-1.786;2022-09-17T19:28:05;14.20;99.90
16976;DHT22;8604;48.148;-1.786;2022-09-17T19:30:34;14.20;99.90
16976;DHT22;8604;48.148;-1.786;2022-09-17T19:33:05;14.10;99.90
16976;DHT22;8604;48.148;-1.786;2022-09-17T19:35:34;14.10;99.90
16976;DHT22;8604;48.148;-1.786;2022-09-17T19:38:04;14.10;99.90
16976;DHT22;8604;48.148;-1.786;2022-09-17T19:44:02;14.00;99.90
16976;DHT22;8604;48.148;-1.786;2022-09-17T19:46:31;13.90;99.90
16976;DHT22;8604;48.148;-1.786;2022-09-17T19:49:02;13.90;99.90
16976;DHT22;8604;48.148;-1.786;2022-09-17T19:51:30;13.90;99.90
16976;DHT22;8604;48.148;-1.786;2022-09-17T19:54:00;13.80;99.90
16976;DHT22;8604;48.148;-1.786;2022-09-17T19:56:42;13.80;99.90
16976;DHT22;8604;48.148;-1.786;2022-09-17T19:59:11;13.80;99.90
16976;DHT22;8604;48.148;-1.786;2022-09-17T20:01:40;13.70;99.90
16976;DHT22;8604;48.148;-1.786;2022-09-17T20:04:17;13.60;99.90
16976;DHT22;8604;48.148;-1.786;2022-09-17T20:06:45;13.60;99.90
16976;DHT22;8604;48.148;-1.786;2022-09-17T20:09:14;13.60;99.90
16976;DHT22;8604;48.148;-1.786;2022-09-17T20:11:43;13.50;99.90
16976;DHT22;8604;48.148;-1.786;2022-09-17T20:14:11;13.50;99.90
16976;DHT22;8604;48.148;-1.786;2022-09-17T20:16:41;13.50;99.90
16976;DHT22;8604;48.148;-1.786;2022-09-17T20:19:13;13.40;99.90
16976;DHT22;8604;48.148;-1.786;2022-09-17T20:21:44;13.40;99.90
16976;DHT22;8604;48.148;-1.786;2022-09-17T20:24:13;13.30;99.90
16976;DHT22;8604;48.148;-1.786;2022-09-17T20:26:42;13.30;99.90
16976;DHT22;8604;48.148;-1.786;2022-09-17T20:29:11;13.30;99.90
16976;DHT22;8604;48.148;-1.786;2022-09-17T20:31:40;13.30;99.90
16976;DHT22;8604;48.148;-1.786;2022-09-17T20:34:09;13.30;99.90
16976;DHT22;8604;48.148;-1.786;2022-09-17T20:36:38;13.20;99.90
16976;DHT22;8604;48.148;-1.786;2022-09-17T20:39:10;13.20;99.90
16976;DHT22;8604;48.148;-1.786;2022-09-17T20:42:12;13.20;99.90
16976;DHT22;8604;48.148;-1.786;2022-09-17T20:44:42;13.10;99.90
16976;DHT22;8604;48.148;-1.786;2022-09-17T20:47:11;13.10;99.90
16976;DHT22;8604;48.148;-1.786;2022-09-17T20:49:40;13.10;99.90
16976;DHT22;8604;48.148;-1.786;2022-09-17T20:52:09;13.00;99.90
16976;DHT22;8604;48.148;-1.786;2022-09-17T20:54:40;13.00;99.90
16976;DHT22;8604;48.148;-1.786;2022-09-17T20:57:09;13.00;99.90
16976;DHT22;8604;48.148;-1.786;2022-09-17T20:59:38;12.90;99.90
16976;DHT22;8604;48.148;-1.786;2022-09-17T21:02:19;12.90;99.90
16976;DHT22;8604;48.148;-1.786;2022-09-17T21:04:48;12.80;99.90
16976;DHT22;8604;48.148;-1.786;2022-09-17T21:07:31;12.80;99.90
16976;DHT22;8604;48.148;-1.786;2022-09-17T21:10:01;12.80;99.90
16976;DHT22;8604;48.148;-1.786;2022-09-17T21:12:29;12.70;99.90
16976;DHT22;8604;48.148;-1.786;2022-09-17T21:14:58;12.70;99.90
16976;DHT22;8604;48.148;-1.786;2022-09-17T21:17:27;12.70;99.90
16976;DHT22;8604;48.148;-1.786;2022-09-17T21:19:55;12.60;99.90
16976;DHT22;8604;48.148;-1.786;2022-09-17T21:22:24;12.70;99.90
16976;DHT22;8604;48.148;-1.786;2022-09-17T21:24:52;12.60;99.90
16976;DHT22;8604;48.148;-1.786;2022-09-17T21:27:22;12.60;99.90
16976;DHT22;8604;48.148;-1.786;2022-09-17T21:29:51;12.60;99.90
16976;DHT22;8604;48.148;-1.786;2022-09-17T21:32:19;12.60;99.90
16976;DHT22;8604;48.148;-1.786;2022-09-17T21:34:48;12.50;99.90
16976;DHT22;8604;48.148;-1.786;2022-09-17T21:37:16;12.50;99.90
16976;DHT22;8604;48.148;-1.786;2022-09-17T21:39:45;12.50;99.90
16976;DHT22;8604;48.148;-1.786;2022-09-17T21:42:13;12.40;99.90
16976;DHT22;8604;48.148;-1.786;2022-09-17T21:44:43;12.40;99.90
16976;DHT22;8604;48.148;-1.786;2022-09-17T21:47:11;12.40;99.90
16976;DHT22;8604;48.148;-1.786;2022-09-17T21:49:39;12.40;99.90
16976;DHT22;8604;48.148;-1.786;2022-09-17T21:52:09;12.30;99.90
16976;DHT22;8604;48.148;-1.786;2022-09-17T21:54:38;12.30;99.90
16976;DHT22;8604;48.148;-1.786;2022-09-17T21:57:06;12.30;99.90
16976;DHT22;8604;48.148;-1.786;2022-09-17T21:59:35;12.20;99.90
16976;DHT22;8604;48.148;-1.786;2022-09-17T22:02:19;12.20;99.90
16976;DHT22;8604;48.148;-1.786;2022-09-17T22:04:47;12.10;99.90
16976;DHT22;8604;48.148;-1.786;2022-09-17T22:07:15;12.10;99.90
16976;DHT22;8604;48.148;-1.786;2022-09-17T22:09:43;12.10;99.90
16976;DHT22;8604;48.148;-1.786;2022-09-17T22:12:12;12.00;99.90
16976;DHT22;8604;48.148;-1.786;2022-09-17T22:14:40;12.00;99.90
16976;DHT22;8604;48.148;-1.786;2022-09-17T22:17:08;12.00;99.90
16976;DHT22;8604;48.148;-1.786;2022-09-17T22:19:38;12.00;99.90
16976;DHT22;8604;48.148;-1.786;2022-09-17T22:22:06;12.00;99.90
16976;DHT22;8604;48.148;-1.786;2022-09-17T22:24:35;11.90;99.90
16976;DHT22;8604;48.148;-1.786;2022-09-17T22:27:04;11.90;99.90
16976;DHT22;8604;48.148;-1.786;2022-09-17T22:29:32;11.90;99.90
16976;DHT22;8604;48.148;-1.786;2022-09-17T22:32:01;11.90;99.90
16976;DHT22;8604;48.148;-1.786;2022-09-17T22:34:29;11.80;99.90
16976;DHT22;8604;48.148;-1.786;2022-09-17T22:36:59;11.80;99.90
16976;DHT22;8604;48.148;-1.786;2022-09-17T22:39:29;11.80;99.90
16976;DHT22;8604;48.148;-1.786;2022-09-17T22:41:57;11.80;99.90
16976;DHT22;8604;48.148;-1.786;2022-09-17T22:44:25;11.80;99.90
16976;DHT22;8604;48.148;-1.786;2022-09-17T22:46:54;11.70;99.90
16976;DHT22;8604;48.148;-1.786;2022-09-17T22:49:22;11.70;99.90
16976;DHT22;8604;48.148;-1.786;2022-09-17T22:51:51;11.70;99.90
16976;DHT22;8604;48.148;-1.786;2022-09-17T22:54:20;11.60;99.90
16976;DHT22;8604;48.148;-1.786;2022-09-17T22:56:48;11.60;99.90
16976;DHT22;8604;48.148;-1.786;2022-09-17T22:59:17;11.60;99.90
16976;DHT22;8604;48.148;-1.786;2022-09-17T23:01:47;11.60;99.90
16976;DHT22;8604;48.148;-1.786;2022-09-17T23:04:15;11.60;99.90
16976;DHT22;8604;48.148;-1.786;2022-09-17T23:06:43;11.50;99.90
16976;DHT22;8604;48.148;-1.786;2022-09-17T23:09:12;11.50;99.90
16976;DHT22;8604;48.148;-1.786;2022-09-17T23:11:42;11.50;99.90
16976;DHT22;8604;48.148;-1.786;2022-09-17T23:14:12;11.40;99.90
16976;DHT22;8604;48.148;-1.786;2022-09-17T23:16:45;11.40;99.90
16976;DHT22;8604;48.148;-1.786;2022-09-17T23:19:15;11.40;99.90
16976;DHT22;8604;48.148;-1.786;2022-09-17T23:21:43;11.30;99.90
16976;DHT22;8604;48.148;-1.786;2022-09-17T23:24:16;11.30;99.90
16976;DHT22;8604;48.148;-1.786;2022-09-17T23:26:47;11.30;99.90
16976;DHT22;8604;48.148;-1.786;2022-09-17T23:29:15;11.30;99.90
16976;DHT22;8604;48.148;-1.786;2022-09-17T23:31:44;11.20;99.90
16976;DHT22;8604;48.148;-1.786;2022-09-17T23:34:12;11.20;99.90
16976;DHT22;8604;48.148;-1.786;2022-09-17T23:36:40;11.10;99.90
16976;DHT22;8604;48.148;-1.786;2022-09-17T23:39:10;11.10;99.90
16976;DHT22;8604;48.148;-1.786;2022-09-17T23:41:40;11.10;99.90
16976;DHT22;8604;48.148;-1.786;2022-09-17T23:44:11;11.00;99.90
16976;DHT22;8604;48.148;-1.786;2022-09-17T23:46:43;11.00;99.90
16976;DHT22;8604;48.148;-1.786;2022-09-17T23:49:12;10.90;99.90
16976;DHT22;8604;48.148;-1.786;2022-09-17T23:51:41;10.90;99.90
16976;DHT22;8604;48.148;-1.786;2022-09-17T23:54:13;10.90;99.90
16976;DHT22;8604;48.148;-1.786;2022-09-17T23:56:42;10.90;99.90
16976;DHT22;8604;48.148;-1.786;2022-09-17T23:59:12;10.80;99.90
